createdAt,value
2023-04-04T00:01:12.980Z,102967.81
2023-04-04T00:03:47.008Z,102966.78
2023-04-04T00:06:16.732Z,102959.81
2023-04-04T00:08:46.970Z,102959.75
2023-04-04T00:11:16.411Z,102956.59
2023-04-04T00:13:45.714Z,102960.91
2023-04-04T00:16:15.136Z,102955.69
2023-04-04T00:18:44.329Z,102924.75
2023-04-04T00:21:13.381Z,102940.38
2023-04-04T00:23:42.226Z,102944.88
2023-04-04T00:26:15.158Z,102950.84
2023-04-04T00:28:45.077Z,102949.19
2023-04-04T00:31:14.306Z,102945.44
2023-04-04T00:33:46.024Z,102946.06
2023-04-04T00:36:15.349Z,102922.63
2023-04-04T00:38:44.416Z,102930.34
2023-04-04T00:41:16.214Z,102949.75
2023-04-04T00:43:46.612Z,102942.94
2023-04-04T00:46:18.991Z,102947.31
2023-04-04T00:48:49.626Z,102954.06
2023-04-04T00:51:19.077Z,102952.41
2023-04-04T00:53:49.232Z,102948.91
2023-04-04T00:56:21.102Z,102950.31
2023-04-04T00:58:50.646Z,102945.75
2023-04-04T01:01:19.674Z,102948.31
2023-04-04T01:03:49.224Z,102945.44
2023-04-04T01:06:18.622Z,102937.06
2023-04-04T01:08:48.820Z,102942.44
2023-04-04T01:11:19.409Z,102936.47
2023-04-04T01:13:49.723Z,102939.47
2023-04-04T01:16:20.453Z,102940.28
2023-04-04T01:18:53.533Z,102933.59
2023-04-04T01:21:25.585Z,102930.25
2023-04-04T01:24:01.314Z,102928.41
2023-04-04T01:26:40.203Z,102923.00
2023-04-04T01:29:10.062Z,102929.94
2023-04-04T01:31:43.358Z,102938.56
2023-04-04T01:34:22.287Z,102932.00
2023-04-04T01:37:00.818Z,102938.63
2023-04-04T01:39:34.774Z,102932.91
2023-04-04T01:42:07.744Z,102930.81
2023-04-04T01:44:37.698Z,102934.16
2023-04-04T01:47:08.981Z,102941.94
2023-04-04T01:49:38.865Z,102941.09
2023-04-04T01:52:09.621Z,102949.84
2023-04-04T01:54:39.656Z,102940.22
2023-04-04T01:57:13.031Z,102939.16
2023-04-04T01:59:42.350Z,102941.00
2023-04-04T02:02:12.895Z,102940.06
2023-04-04T02:04:42.338Z,102933.00
2023-04-04T02:07:11.594Z,102934.53
2023-04-04T02:09:40.893Z,102936.94
2023-04-04T02:12:09.777Z,102927.09
2023-04-04T02:14:41.018Z,102948.63
2023-04-04T02:17:10.683Z,102949.03
2023-04-04T02:19:39.917Z,102948.94
2023-04-04T02:22:08.902Z,102959.97
2023-04-04T02:24:38.480Z,102909.75
2023-04-04T02:27:07.817Z,102946.34
2023-04-04T02:29:37.431Z,102950.88
2023-04-04T02:32:08.263Z,102947.94
2023-04-04T02:34:39.769Z,102921.69
2023-04-04T02:37:09.023Z,102934.59
2023-04-04T02:39:38.005Z,102938.59
2023-04-04T02:42:07.830Z,102910.06
2023-04-04T02:44:37.175Z,102930.06
2023-04-04T02:47:09.023Z,102917.25
2023-04-04T02:49:38.517Z,102916.38
2023-04-04T02:52:08.397Z,102916.13
2023-04-04T02:54:42.289Z,102911.56
2023-04-04T02:57:13.995Z,102909.22
2023-04-04T02:59:45.575Z,102890.84
2023-04-04T03:02:16.301Z,102906.41
2023-04-04T03:04:45.726Z,102901.94
2023-04-04T03:07:14.778Z,102933.47
2023-04-04T03:09:45.439Z,102909.06
2023-04-04T03:12:14.515Z,102882.91
2023-04-04T03:14:44.112Z,102912.75
2023-04-04T03:17:14.983Z,102910.28
2023-04-04T03:19:48.655Z,102911.88
2023-04-04T03:22:17.812Z,102917.69
2023-04-04T03:24:49.264Z,102913.56
2023-04-04T03:27:18.421Z,102901.13
2023-04-04T03:29:47.892Z,102909.81
2023-04-04T03:32:19.842Z,102916.69
2023-04-04T03:34:50.413Z,102916.00
2023-04-04T03:37:23.135Z,102950.19
2023-04-04T03:39:54.581Z,102927.78
2023-04-04T03:42:23.690Z,102922.34
2023-04-04T03:44:57.244Z,102916.00
2023-04-04T03:47:32.476Z,102927.25
2023-04-04T03:50:03.608Z,102921.41
2023-04-04T03:52:42.263Z,102923.94
2023-04-04T03:55:13.464Z,102914.75
2023-04-04T03:57:42.819Z,102920.94
2023-04-04T04:00:14.528Z,102921.75
2023-04-04T04:02:43.538Z,102910.88
2023-04-04T04:05:14.345Z,102919.88
2023-04-04T04:07:45.550Z,102943.06
2023-04-04T04:10:15.266Z,102909.50
2023-04-04T04:12:44.098Z,102911.31
2023-04-04T04:15:13.024Z,102916.53
2023-04-04T04:17:44.083Z,102919.13
2023-04-04T04:20:15.711Z,102919.09
2023-04-04T04:22:53.852Z,102905.44
2023-04-04T04:25:23.753Z,102919.19
2023-04-04T04:28:06.551Z,102920.00
2023-04-04T04:30:38.214Z,102917.44
2023-04-04T04:33:13.281Z,102915.56
2023-04-04T04:35:55.591Z,102915.69
2023-04-04T04:38:26.379Z,102882.97
2023-04-04T04:40:55.408Z,102893.16
2023-04-04T04:43:29.537Z,102924.34
2023-04-04T04:46:01.203Z,102913.13
2023-04-04T04:48:33.642Z,102746.91
2023-04-04T04:51:04.446Z,102910.69
2023-04-04T04:53:41.318Z,102919.13
2023-04-04T04:56:10.274Z,102934.47
2023-04-04T04:58:42.397Z,102908.28
2023-04-04T05:01:13.052Z,102928.31
2023-04-04T05:03:42.338Z,102935.97
2023-04-04T05:06:17.256Z,102930.91
2023-04-04T05:08:46.913Z,102921.50
2023-04-04T05:11:42.127Z,102930.03
2023-04-04T05:14:12.925Z,102925.72
2023-04-04T05:16:49.456Z,102935.03
2023-04-04T05:19:19.812Z,102929.88
2023-04-04T05:21:55.113Z,102924.69
2023-04-04T05:24:33.584Z,102924.75
2023-04-04T05:27:03.550Z,102908.09
2023-04-04T05:29:39.091Z,102943.41
2023-04-04T05:32:11.111Z,102945.97
2023-04-04T05:34:41.287Z,102945.00
2023-04-04T05:37:17.251Z,102952.66
2023-04-04T05:39:50.121Z,102948.25
2023-04-04T05:42:20.403Z,102952.53
2023-04-04T05:44:53.353Z,102945.75
2023-04-04T05:47:22.964Z,102950.16
2023-04-04T05:49:52.444Z,102941.78
2023-04-04T05:52:23.128Z,102941.97
2023-04-04T05:54:52.786Z,102940.56
2023-04-04T05:57:29.023Z,102932.47
2023-04-04T06:00:00.273Z,102936.44
2023-04-04T06:02:33.014Z,102929.09
2023-04-04T06:05:06.792Z,102932.91
2023-04-04T06:07:40.758Z,102941.88
2023-04-04T06:10:11.330Z,102931.13
2023-04-04T06:12:40.422Z,102932.13
2023-04-04T06:15:12.354Z,102933.31
2023-04-04T06:17:43.434Z,102940.38
2023-04-04T06:20:13.042Z,102937.19
2023-04-04T06:22:44.186Z,102934.81
2023-04-04T06:25:14.654Z,102932.50
2023-04-04T06:27:44.133Z,102920.31
2023-04-04T06:30:17.679Z,102914.28
2023-04-04T06:32:50.722Z,102928.75
2023-04-04T06:35:22.488Z,102924.41
2023-04-04T06:38:00.822Z,102932.56
2023-04-04T06:40:31.110Z,102932.63
2023-04-04T06:43:02.658Z,102925.94
2023-04-04T06:45:37.771Z,102933.00
2023-04-04T06:48:08.173Z,102940.06
2023-04-04T06:50:37.735Z,102947.16
2023-04-04T06:53:12.311Z,102945.78
2023-04-04T06:55:41.259Z,102944.19
2023-04-04T06:58:10.039Z,102937.38
2023-04-04T07:00:38.963Z,102943.59
2023-04-04T07:03:08.085Z,102829.47
2023-04-04T07:05:39.469Z,102945.59
2023-04-04T07:08:08.569Z,102947.31
2023-04-04T07:10:41.435Z,102934.84
2023-04-04T07:13:11.119Z,102940.53
2023-04-04T07:15:39.831Z,102943.16
2023-04-04T07:18:09.412Z,102946.94
2023-04-04T07:20:38.414Z,102953.88
2023-04-04T07:23:07.286Z,102945.44
2023-04-04T07:25:35.962Z,102959.97
2023-04-04T07:28:12.660Z,102959.13
2023-04-04T07:30:44.321Z,102951.47
2023-04-04T07:33:13.187Z,102952.38
2023-04-04T07:35:42.367Z,102949.03
2023-04-04T07:38:11.320Z,102943.00
2023-04-04T07:40:41.899Z,102944.75
2023-04-04T07:43:12.192Z,102949.97
2023-04-04T07:45:41.326Z,102943.94
2023-04-04T07:48:10.214Z,102948.25
2023-04-04T07:50:39.177Z,102943.06
2023-04-04T07:53:08.227Z,102937.88
2023-04-04T07:55:37.096Z,102939.59
2023-04-04T07:58:07.936Z,102930.94
2023-04-04T08:00:38.230Z,102906.69
2023-04-04T08:03:07.159Z,102910.06
2023-04-04T08:05:35.977Z,102918.63
2023-04-04T08:08:04.656Z,102923.78
2023-04-04T08:10:33.374Z,102915.13
2023-04-04T08:13:02.191Z,102926.28
2023-04-04T08:15:30.984Z,102926.31
2023-04-04T08:18:03.348Z,102916.88
2023-04-04T08:20:32.477Z,102929.66
2023-04-04T08:23:01.410Z,102928.66
2023-04-04T08:25:30.634Z,102921.72
2023-04-04T08:27:59.431Z,102922.50
2023-04-04T08:30:28.480Z,102918.03
2023-04-04T08:32:57.522Z,102910.16
2023-04-04T08:35:27.725Z,102921.22
2023-04-04T08:37:57.437Z,102909.91
2023-04-04T08:40:30.295Z,102909.00
2023-04-04T08:43:00.772Z,102903.41
2023-04-04T08:45:33.384Z,102903.19
2023-04-04T08:48:04.975Z,102899.97
2023-04-04T08:50:39.203Z,102904.22
2023-04-04T08:53:09.880Z,102898.13
2023-04-04T08:55:39.505Z,102913.69
2023-04-04T08:58:08.297Z,102909.22
2023-04-04T09:00:40.670Z,102903.97
2023-04-04T09:03:14.900Z,102904.19
2023-04-04T09:05:46.132Z,102906.78
2023-04-04T09:08:15.859Z,102886.03
2023-04-04T09:10:45.554Z,102888.28
2023-04-04T09:13:16.503Z,102910.03
2023-04-04T09:15:49.377Z,102908.84
2023-04-04T09:18:19.217Z,102886.66
2023-04-04T09:20:52.947Z,102904.25
2023-04-04T09:23:23.821Z,102884.13
2023-04-04T09:28:30.373Z,102908.72
2023-04-04T09:31:01.974Z,102912.88
2023-04-04T09:33:32.812Z,102902.91
2023-04-04T09:36:04.694Z,102903.69
2023-04-04T09:38:33.612Z,102898.88
2023-04-04T09:41:02.502Z,102898.63
2023-04-04T09:43:33.767Z,102898.25
2023-04-04T09:46:05.526Z,102889.75
2023-04-04T09:48:37.057Z,102869.81
2023-04-04T09:51:08.486Z,102884.97
2023-04-04T09:53:38.168Z,102879.97
2023-04-04T09:56:08.133Z,102878.44
2023-04-04T09:58:39.124Z,102883.44
2023-04-04T10:01:15.419Z,102845.84
2023-04-04T10:03:44.442Z,102814.28
2023-04-04T10:06:15.413Z,102885.47
2023-04-04T10:08:45.316Z,102877.41
2023-04-04T10:11:14.123Z,102831.53
2023-04-04T10:13:44.721Z,102882.38
2023-04-04T10:16:15.448Z,102884.03
2023-04-04T10:18:44.734Z,102879.81
2023-04-04T10:21:16.134Z,102878.31
2023-04-04T10:23:47.694Z,102884.47
2023-04-04T10:26:18.735Z,102877.22
2023-04-04T10:28:47.812Z,102878.81
2023-04-04T10:31:21.710Z,102871.03
2023-04-04T10:34:01.864Z,102878.00
2023-04-04T10:36:39.624Z,102872.47
2023-04-04T10:39:15.276Z,102866.41
2023-04-04T10:41:47.900Z,102871.03
2023-04-04T10:44:25.421Z,102867.88
2023-04-04T10:46:55.589Z,102861.00
2023-04-04T10:49:29.785Z,102854.38
2023-04-04T10:51:59.939Z,102839.72
2023-04-04T10:54:30.371Z,102849.31
2023-04-04T10:57:01.594Z,102847.03
2023-04-04T10:59:30.577Z,102840.03
2023-04-04T11:02:00.926Z,102852.16
2023-04-04T11:04:34.290Z,102834.66
2023-04-04T11:07:14.703Z,102839.50
2023-04-04T11:09:51.263Z,102835.91
2023-04-04T11:12:28.406Z,102833.81
2023-04-04T11:15:11.395Z,102738.03
2023-04-04T11:17:53.087Z,102820.41
2023-04-04T11:20:23.930Z,102820.84
2023-04-04T11:23:04.685Z,102823.72
2023-04-04T11:25:35.209Z,102801.19
2023-04-04T11:28:14.865Z,102818.63
2023-04-04T11:30:48.904Z,102789.19
2023-04-04T11:33:31.835Z,102806.88
2023-04-04T11:36:08.568Z,102824.72
2023-04-04T11:38:41.408Z,102804.19
2023-04-04T11:41:14.771Z,102814.53
2023-04-04T11:43:46.739Z,102802.44
2023-04-04T11:46:19.671Z,102776.69
2023-04-04T11:48:49.440Z,102797.47
2023-04-04T11:51:19.970Z,102794.06
2023-04-04T11:53:50.070Z,102779.13
2023-04-04T11:56:20.911Z,102793.56
2023-04-04T11:59:01.589Z,102790.53
2023-04-04T12:01:38.748Z,102774.38
2023-04-04T12:04:08.041Z,102788.25
2023-04-04T12:06:37.338Z,102787.31
2023-04-04T12:09:08.777Z,102773.97
2023-04-04T12:11:38.500Z,102767.88
2023-04-04T12:14:07.773Z,102770.44
2023-04-04T12:16:37.215Z,102766.44
2023-04-04T12:19:06.130Z,102752.84
2023-04-04T12:21:34.813Z,102764.19
2023-04-04T12:24:03.818Z,102759.53
2023-04-04T12:26:34.021Z,102760.84
2023-04-04T12:29:02.863Z,102742.41
2023-04-04T12:31:34.697Z,102750.28
2023-04-04T12:34:03.632Z,102755.91
2023-04-04T12:36:38.242Z,102753.22
2023-04-04T12:39:08.964Z,102743.84
2023-04-04T12:41:49.278Z,102741.25
2023-04-04T12:44:29.421Z,102747.25
2023-04-04T12:47:00.173Z,102746.50
2023-04-04T12:49:31.090Z,102739.78
2023-04-04T12:52:03.909Z,102738.84
2023-04-04T12:54:35.131Z,102652.72
2023-04-04T12:57:07.412Z,102731.75
2023-04-04T12:59:40.050Z,102725.91
2023-04-04T13:02:12.501Z,102732.94
2023-04-04T13:04:43.383Z,102730.19
2023-04-04T13:07:22.942Z,102719.06
2023-04-04T13:09:56.559Z,102714.78
2023-04-04T13:12:28.442Z,102706.09
2023-04-04T13:14:59.052Z,102701.59
2023-04-04T13:17:40.101Z,102698.78
2023-04-04T13:20:10.143Z,102696.78
2023-04-04T13:22:39.501Z,102555.03
2023-04-04T13:25:10.099Z,102687.63
2023-04-04T13:27:42.795Z,102680.94
2023-04-04T13:30:14.467Z,102685.03
2023-04-04T13:32:43.211Z,102680.03
2023-04-04T13:35:12.037Z,102672.47
2023-04-04T13:37:43.205Z,102657.56
2023-04-04T13:40:14.287Z,102675.09
2023-04-04T13:42:44.478Z,102676.91
2023-04-04T13:45:13.610Z,102666.63
2023-04-04T13:47:42.718Z,102663.97
2023-04-04T13:50:12.014Z,102666.47
2023-04-04T13:52:40.839Z,102660.69
2023-04-04T13:55:10.439Z,102658.47
2023-04-04T13:57:39.287Z,102662.28
2023-04-04T14:00:11.115Z,102650.53
2023-04-04T14:02:42.421Z,102658.84
2023-04-04T14:05:11.987Z,102632.09
2023-04-04T14:07:40.810Z,102643.06
2023-04-04T14:10:11.676Z,102635.75
2023-04-04T14:12:41.372Z,102631.81
2023-04-04T14:15:13.244Z,102634.13
2023-04-04T14:17:42.134Z,102638.94
2023-04-04T14:20:11.855Z,102639.28
2023-04-04T14:22:43.186Z,102635.09
2023-04-04T14:25:12.055Z,102635.56
2023-04-04T14:27:40.851Z,102633.91
2023-04-04T14:30:12.142Z,102632.59
2023-04-04T14:32:41.009Z,102535.50
2023-04-04T14:35:10.367Z,102626.28
2023-04-04T14:37:39.177Z,102627.38
2023-04-04T14:40:08.896Z,102623.69
2023-04-04T14:42:39.408Z,102615.63
2023-04-04T14:45:10.152Z,102617.19
2023-04-04T14:47:43.368Z,102606.66
2023-04-04T14:50:12.329Z,102608.47
2023-04-04T14:52:41.299Z,102618.81
2023-04-04T14:55:11.401Z,102610.28
2023-04-04T14:57:57.095Z,102608.19
2023-04-04T15:00:29.416Z,102608.78
2023-04-04T15:03:01.068Z,102611.47
2023-04-04T15:05:30.136Z,102605.06
2023-04-04T15:07:58.807Z,102605.25
2023-04-04T15:10:27.637Z,102597.47
2023-04-04T15:12:56.437Z,102598.34
2023-04-04T15:15:29.061Z,102583.66
2023-04-04T15:17:59.342Z,102591.50
2023-04-04T15:20:28.341Z,102589.09
2023-04-04T15:22:57.145Z,102579.53
2023-04-04T15:25:25.909Z,102567.88
2023-04-04T15:27:56.855Z,102581.16
2023-04-04T15:30:25.632Z,102561.09
2023-04-04T15:32:54.633Z,102572.97
2023-04-04T15:35:25.110Z,102564.19
2023-04-04T15:37:53.846Z,102579.63
2023-04-04T15:40:22.957Z,102584.88
2023-04-04T15:42:51.907Z,102579.03
2023-04-04T15:45:20.565Z,102571.22
2023-04-04T15:47:49.393Z,102578.13
2023-04-04T15:50:18.251Z,102582.56
2023-04-04T15:52:48.452Z,102574.28
2023-04-04T15:55:20.005Z,102579.09
2023-04-04T15:57:50.437Z,102567.50
2023-04-04T16:00:19.581Z,102574.75
2023-04-04T16:02:48.448Z,102558.84
2023-04-04T16:05:17.315Z,102557.06
2023-04-04T16:07:46.273Z,102543.44
2023-04-04T16:10:16.495Z,102543.28
2023-04-04T16:12:47.591Z,102545.16
2023-04-04T16:15:16.499Z,102547.88
2023-04-04T16:17:45.292Z,102542.56
2023-04-04T16:20:14.212Z,102513.34
2023-04-04T16:22:42.931Z,102543.34
2023-04-04T16:25:11.850Z,102548.56
2023-04-04T16:27:44.255Z,102536.22
2023-04-04T16:30:16.229Z,102539.25
2023-04-04T16:32:46.656Z,102506.91
2023-04-04T16:35:15.609Z,102539.16
2023-04-04T16:37:44.302Z,102538.34
2023-04-04T16:40:14.810Z,102531.72
2023-04-04T16:42:45.928Z,102537.59
2023-04-04T16:45:14.790Z,102541.13
2023-04-04T16:47:43.595Z,102539.56
2023-04-04T16:50:14.742Z,102536.78
2023-04-04T16:52:43.450Z,102537.50
2023-04-04T16:55:12.296Z,102528.34
2023-04-04T16:57:41.206Z,102532.00
2023-04-04T17:00:12.972Z,102530.44
2023-04-04T17:02:45.624Z,102523.53
2023-04-04T17:05:15.067Z,102519.22
2023-04-04T17:07:46.478Z,102521.97
2023-04-04T17:10:15.667Z,102519.28
2023-04-04T17:12:44.654Z,102518.56
2023-04-04T17:15:16.622Z,102464.75
2023-04-04T17:17:47.021Z,102500.84
2023-04-04T17:20:21.018Z,102507.88
2023-04-04T17:22:53.952Z,102493.47
2023-04-04T17:25:28.948Z,102509.72
2023-04-04T17:28:00.245Z,102517.78
2023-04-04T17:30:31.216Z,102518.50
2023-04-04T17:33:00.120Z,102506.81
2023-04-04T17:35:31.329Z,102510.97
2023-04-04T17:38:00.116Z,102485.03
2023-04-04T17:40:28.863Z,102508.31
2023-04-04T17:42:57.671Z,102501.75
2023-04-04T17:45:27.636Z,102505.41
2023-04-04T17:47:58.279Z,102514.06
2023-04-04T17:50:29.793Z,102514.00
2023-04-04T17:53:02.030Z,102511.69
2023-04-04T17:55:32.100Z,102507.59
2023-04-04T17:58:00.877Z,102512.72
2023-04-04T18:00:29.598Z,102515.16
2023-04-04T18:03:02.052Z,102521.44
2023-04-04T18:05:31.333Z,102413.28
2023-04-04T18:08:04.875Z,102530.75
2023-04-04T18:10:33.920Z,102524.38
2023-04-04T18:13:02.665Z,102524.63
2023-04-04T18:15:36.417Z,102461.28
2023-04-04T18:18:12.464Z,102529.94
2023-04-04T18:20:41.332Z,102533.31
2023-04-04T18:23:12.440Z,102438.84
2023-04-04T18:25:43.536Z,102524.59
2023-04-04T18:28:12.896Z,102529.81
2023-04-04T18:30:42.151Z,102540.19
2023-04-04T18:33:13.437Z,102510.25
2023-04-04T18:35:45.359Z,102531.84
2023-04-04T18:38:14.274Z,102532.81
2023-04-04T18:40:45.717Z,102518.97
2023-04-04T18:43:14.760Z,102528.28
2023-04-04T18:45:43.479Z,102535.34
2023-04-04T18:48:13.773Z,102524.03
2023-04-04T18:50:43.752Z,102528.72
2023-04-04T18:53:12.647Z,102538.25
2023-04-04T18:55:41.469Z,102559.84
2023-04-04T18:58:10.394Z,102566.88
2023-04-04T19:00:39.524Z,102543.59
2023-04-04T19:03:13.550Z,102562.53
2023-04-04T19:05:47.717Z,102558.50
2023-04-04T19:08:17.752Z,102545.59
2023-04-04T19:10:47.817Z,102560.22
2023-04-04T19:13:17.294Z,102565.47
2023-04-04T19:15:46.933Z,102560.16
2023-04-04T19:18:19.339Z,102555.13
2023-04-04T19:20:48.110Z,102563.72
2023-04-04T19:23:17.139Z,102553.38
2023-04-04T19:25:46.048Z,102553.31
2023-04-04T19:28:15.034Z,102549.06
2023-04-04T19:30:45.530Z,102550.00
2023-04-04T19:33:18.144Z,102550.88
2023-04-04T19:35:58.816Z,102553.44
2023-04-04T19:38:29.657Z,102544.88
2023-04-04T19:40:59.938Z,102542.31
2023-04-04T19:43:30.027Z,102543.19
2023-04-04T19:46:00.412Z,102524.31
2023-04-04T19:48:44.480Z,102546.69
2023-04-04T19:51:42.635Z,102539.78
2023-04-04T19:54:17.761Z,102538.03
2023-04-04T19:56:50.866Z,102536.38
2023-04-04T20:00:06.103Z,102539.06
2023-04-04T20:02:57.071Z,102526.06
2023-04-04T20:05:56.509Z,102533.06
2023-04-04T20:08:31.775Z,102527.09
2023-04-04T20:11:00.686Z,102530.56
2023-04-04T20:13:32.924Z,102528.00
2023-04-04T20:16:07.010Z,102501.34
2023-04-04T20:18:37.336Z,102527.16
2023-04-04T20:21:12.018Z,102526.31
2023-04-04T20:23:48.031Z,102524.59
2023-04-04T20:26:41.860Z,102533.22
2023-04-04T20:29:11.718Z,102408.53
2023-04-04T20:31:44.041Z,102522.00
2023-04-04T20:34:34.004Z,102529.78
2023-04-04T20:37:05.098Z,102537.53
2023-04-04T20:39:56.115Z,102525.53
2023-04-04T20:42:50.706Z,102521.22
2023-04-04T20:45:44.927Z,102541.94
2023-04-04T20:48:41.965Z,102552.28
2023-04-04T20:51:25.932Z,102504.03
2023-04-04T20:53:58.869Z,102524.66
2023-04-04T20:56:57.259Z,102516.09
2023-04-04T20:59:44.843Z,102523.84
2023-04-04T21:02:20.106Z,102523.00
2023-04-04T21:04:51.821Z,102521.28
2023-04-04T21:07:40.589Z,102524.78
2023-04-04T21:10:24.837Z,102520.47
2023-04-04T21:12:56.362Z,102510.13
2023-04-04T21:15:29.654Z,102505.81
2023-04-04T21:18:02.517Z,102500.66
2023-04-04T21:21:19.778Z,102504.97
2023-04-04T21:23:52.628Z,102512.75
2023-04-04T21:26:33.109Z,102504.13
2023-04-04T21:29:06.441Z,102503.28
2023-04-04T21:31:36.756Z,102488.66
2023-04-04T21:34:11.660Z,102483.47
2023-04-04T21:36:41.659Z,102517.06
2023-04-04T21:39:14.658Z,102498.94
2023-04-04T21:41:46.173Z,102498.13
2023-04-04T21:44:16.532Z,102504.16
2023-04-04T21:46:47.981Z,102495.53
2023-04-04T21:49:17.604Z,102493.81
2023-04-04T21:51:46.816Z,102505.03
2023-04-04T21:54:16.300Z,102490.41
2023-04-04T21:56:45.620Z,102494.69
2023-04-04T21:59:14.654Z,102506.75
2023-04-04T22:01:45.376Z,102482.66
2023-04-04T22:04:14.927Z,102502.44
2023-04-04T22:06:44.069Z,102484.34
2023-04-04T22:09:13.156Z,102494.69
2023-04-04T22:11:45.654Z,102494.69
2023-04-04T22:14:17.796Z,102464.56
2023-04-04T22:16:48.999Z,102493.81
2023-04-04T22:19:18.331Z,102493.81
2023-04-04T22:21:49.986Z,102480.09
2023-04-04T22:24:19.073Z,102473.22
2023-04-04T22:26:50.701Z,102515.41
2023-04-04T22:29:19.922Z,102484.38
2023-04-04T22:31:50.835Z,102495.56
2023-04-04T22:34:20.230Z,102493.84
2023-04-04T22:36:49.484Z,102492.13
2023-04-04T22:39:20.880Z,102493.00
2023-04-04T22:41:52.495Z,102499.03
2023-04-04T22:44:21.791Z,102466.34
2023-04-04T22:46:53.022Z,102485.28
2023-04-04T22:49:22.496Z,102453.44
2023-04-04T22:51:55.568Z,102478.38
2023-04-04T22:54:24.518Z,102482.69
2023-04-04T22:56:53.666Z,102469.78
2023-04-04T22:59:22.906Z,102464.63
2023-04-04T23:01:53.767Z,102472.38
2023-04-04T23:04:23.086Z,102461.16
2023-04-04T23:06:53.427Z,102462.06
2023-04-04T23:09:22.725Z,102462.91
2023-04-04T23:11:51.841Z,102466.34
2023-04-04T23:14:22.963Z,102465.50
2023-04-04T23:16:56.997Z,102466.34
2023-04-04T23:19:26.440Z,102461.19
2023-04-04T23:21:55.660Z,102463.75
2023-04-04T23:24:24.805Z,102467.16
2023-04-04T23:26:54.183Z,102469.75
2023-04-04T23:29:23.814Z,102471.47
2023-04-04T23:31:57.100Z,102457.69
2023-04-04T23:34:26.088Z,102459.41
2023-04-04T23:36:55.943Z,102459.41
2023-04-04T23:39:25.052Z,102454.25
2023-04-04T23:41:54.077Z,102454.25
2023-04-04T23:44:23.577Z,102450.81
2023-04-04T23:46:53.000Z,102454.25
2023-04-04T23:49:24.311Z,102452.53
2023-04-04T23:51:53.348Z,102457.69
2023-04-04T23:54:23.460Z,102449.09
2023-04-04T23:56:52.740Z,102461.97
2023-04-04T23:59:22.016Z,102443.94
